createdAt,value
2022-10-19T00:01:23.783Z,8.25
2022-10-19T00:03:55.340Z,8.25
2022-10-19T00:06:30.797Z,8.25
2022-10-19T00:09:13.178Z,8.25
2022-10-19T00:11:47.197Z,8.24
2022-10-19T00:14:22.640Z,8.23
2022-10-19T00:16:54.702Z,8.21
2022-10-19T00:19:26.744Z,8.20
2022-10-19T00:21:55.567Z,8.17
2022-10-19T00:24:24.112Z,8.13
2022-10-19T00:26:52.559Z,8.09
2022-10-19T00:32:51.418Z,8.01
2022-10-19T00:35:19.966Z,7.98
2022-10-19T00:37:48.429Z,7.98
2022-10-19T00:40:16.986Z,7.98
2022-10-19T00:42:45.519Z,7.99
2022-10-19T00:45:17.672Z,7.98
2022-10-19T00:47:46.751Z,7.95
2022-10-19T00:50:15.914Z,7.92
2022-10-19T00:52:44.474Z,7.87
2022-10-19T00:55:13.367Z,7.82
2022-10-19T00:57:41.896Z,7.79
2022-10-19T01:00:10.779Z,7.77
2022-10-19T01:02:39.325Z,7.73
2022-10-19T01:05:08.604Z,7.70
2022-10-19T01:07:37.201Z,7.68
2022-10-19T01:10:06.773Z,7.66
2022-10-19T01:13:00.874Z,7.63
2022-10-19T01:15:45.407Z,7.57
2022-10-19T01:18:24.134Z,7.49
2022-10-19T01:21:26.326Z,7.41
2022-10-19T01:24:35.841Z,7.31
2022-10-19T01:27:51.556Z,7.15
2022-10-19T01:30:53.527Z,7.09
2022-10-19T01:33:47.970Z,7.06
2022-10-19T01:36:39.756Z,7.04
2022-10-19T01:39:23.735Z,7.00
2022-10-19T01:42:16.809Z,6.96
2022-10-19T01:44:59.597Z,6.88
2022-10-19T01:47:39.129Z,6.82
2022-10-19T01:50:17.923Z,6.76
2022-10-19T01:52:47.130Z,6.69
2022-10-19T01:55:16.678Z,6.62
2022-10-19T01:57:57.513Z,6.55
2022-10-19T02:00:26.669Z,6.50
2022-10-19T02:02:55.690Z,6.46
2022-10-19T02:05:30.613Z,6.43
2022-10-19T02:08:03.244Z,6.41
2022-10-19T02:10:34.216Z,6.38
2022-10-19T02:13:03.497Z,6.34
2022-10-19T02:15:35.078Z,6.29
2022-10-19T02:18:03.471Z,6.23
2022-10-19T02:20:31.909Z,6.17
2022-10-19T02:23:00.400Z,6.13
2022-10-19T02:25:28.922Z,6.12
2022-10-19T02:27:57.526Z,6.13
2022-10-19T02:30:26.250Z,6.15
2022-10-19T02:32:55.075Z,6.15
2022-10-19T02:35:23.516Z,6.14
2022-10-19T02:37:52.128Z,6.12
2022-10-19T02:40:20.669Z,6.09
2022-10-19T02:42:58.512Z,6.05
2022-10-19T02:45:33.527Z,6.01
2022-10-19T02:51:37.257Z,5.91
2022-10-19T02:54:08.015Z,5.84
2022-10-19T02:56:37.819Z,5.80
2022-10-19T02:59:06.265Z,5.77
2022-10-19T03:01:35.159Z,5.71
2022-10-19T03:04:04.190Z,5.68
2022-10-19T03:06:32.682Z,5.67
2022-10-19T03:09:01.174Z,5.63
2022-10-19T03:11:30.136Z,5.60
2022-10-19T03:13:58.659Z,5.54
2022-10-19T03:16:27.158Z,5.56
2022-10-19T03:18:55.732Z,5.57
2022-10-19T03:21:24.412Z,5.59
2022-10-19T03:23:53.005Z,5.60
2022-10-19T03:26:21.540Z,5.62
2022-10-19T03:28:50.248Z,5.62
2022-10-19T03:31:19.313Z,5.61
2022-10-19T03:33:48.390Z,5.61
2022-10-19T03:36:21.930Z,5.60
2022-10-19T03:38:56.211Z,5.59
2022-10-19T03:41:28.909Z,5.44
2022-10-19T03:43:57.872Z,5.63
2022-10-19T03:46:28.028Z,5.64
2022-10-19T03:48:56.593Z,5.61
2022-10-19T03:51:27.957Z,5.66
2022-10-19T03:54:05.417Z,5.65
2022-10-19T03:56:35.587Z,5.65
2022-10-19T03:59:06.268Z,5.65
2022-10-19T04:01:45.098Z,5.62
2022-10-19T04:04:17.612Z,5.59
2022-10-19T04:06:49.039Z,5.57
2022-10-19T04:09:19.470Z,5.56
2022-10-19T04:11:48.895Z,5.56
2022-10-19T04:14:31.636Z,5.56
2022-10-19T04:17:02.462Z,5.56
2022-10-19T04:19:32.015Z,5.54
2022-10-19T04:22:00.794Z,5.53
2022-10-19T04:24:29.295Z,5.52
2022-10-19T04:26:58.161Z,5.50
2022-10-19T04:29:29.771Z,5.48
2022-10-19T04:31:59.767Z,5.48
2022-10-19T04:34:28.505Z,5.47
2022-10-19T04:36:59.687Z,5.50
2022-10-19T04:39:28.366Z,5.52
2022-10-19T04:41:57.045Z,5.52
2022-10-19T04:44:25.565Z,5.51
2022-10-19T04:46:54.042Z,5.50
2022-10-19T04:49:22.683Z,5.49
2022-10-19T04:51:51.141Z,5.48
2022-10-19T04:54:19.756Z,5.47
2022-10-19T04:56:48.316Z,5.47
2022-10-19T04:59:16.790Z,5.48
2022-10-19T05:01:47.267Z,5.49
2022-10-19T05:04:16.018Z,5.48
2022-10-19T05:06:44.746Z,5.49
2022-10-19T05:09:13.401Z,5.50
2022-10-19T05:11:41.856Z,5.52
2022-10-19T05:14:10.392Z,5.55
2022-10-19T05:16:38.823Z,5.60
2022-10-19T05:19:07.305Z,5.66
2022-10-19T05:21:35.710Z,5.72
2022-10-19T05:24:04.619Z,5.76
2022-10-19T05:26:32.994Z,5.80
2022-10-19T05:29:04.897Z,5.83
2022-10-19T05:31:34.879Z,5.85
2022-10-19T05:34:04.347Z,5.90
2022-10-19T05:36:37.978Z,5.99
2022-10-19T05:39:12.715Z,6.09
2022-10-19T05:41:43.779Z,6.22
2022-10-19T05:44:20.008Z,6.30
2022-10-19T05:46:50.130Z,6.39
2022-10-19T05:49:21.140Z,6.46
2022-10-19T05:51:50.430Z,6.53
2022-10-19T05:54:21.758Z,6.60
2022-10-19T05:56:52.484Z,6.67
2022-10-19T05:59:21.684Z,6.76
2022-10-19T06:01:50.438Z,6.86
2022-10-19T06:04:18.923Z,6.95
2022-10-19T06:06:47.476Z,7.05
2022-10-19T06:09:17.128Z,7.14
2022-10-19T06:11:45.717Z,7.21
2022-10-19T06:14:16.199Z,7.28
2022-10-19T06:16:46.285Z,7.35
2022-10-19T06:19:15.232Z,7.39
2022-10-19T06:21:45.882Z,7.49
2022-10-19T06:24:14.982Z,7.62
2022-10-19T06:26:43.491Z,7.79
2022-10-19T06:29:12.320Z,7.98
2022-10-19T06:31:40.878Z,8.14
2022-10-19T06:34:09.320Z,8.26
2022-10-19T06:36:38.354Z,8.36
2022-10-19T06:39:06.893Z,8.44
2022-10-19T06:41:35.538Z,8.51
2022-10-19T06:44:19.783Z,8.62
2022-10-19T06:46:48.640Z,8.71
2022-10-19T06:49:17.125Z,8.79
2022-10-19T06:51:45.570Z,8.83
2022-10-19T06:54:14.231Z,8.89
2022-10-19T06:56:42.801Z,8.92
2022-10-19T06:59:13.500Z,8.94
2022-10-19T07:01:43.950Z,8.96
2022-10-19T07:04:12.685Z,9.00
2022-10-19T07:06:41.198Z,9.08
2022-10-19T07:09:09.693Z,9.16
2022-10-19T07:11:42.410Z,9.27
2022-10-19T07:14:14.683Z,9.37
2022-10-19T07:16:43.168Z,9.47
2022-10-19T07:19:13.630Z,9.55
2022-10-19T07:21:44.204Z,9.70
2022-10-19T07:24:32.640Z,9.84
2022-10-19T07:27:01.422Z,9.94
2022-10-19T07:29:29.927Z,10.07
2022-10-19T07:31:59.047Z,10.18
2022-10-19T07:34:29.034Z,10.28
2022-10-19T07:36:57.897Z,10.39
2022-10-19T07:39:27.618Z,10.52
2022-10-19T07:41:56.094Z,10.65
2022-10-19T07:44:24.655Z,10.76
2022-10-19T07:46:53.127Z,10.88
2022-10-19T07:49:22.037Z,11.01
2022-10-19T07:51:54.276Z,11.31
2022-10-19T07:54:24.719Z,12.04
2022-10-19T07:56:53.169Z,12.71
2022-10-19T07:59:21.737Z,13.25
2022-10-19T08:01:50.688Z,13.67
2022-10-19T08:07:07.868Z,14.19
2022-10-19T08:09:53.634Z,14.30
2022-10-19T08:12:22.761Z,14.36
2022-10-19T08:14:51.339Z,14.38
2022-10-19T08:17:20.375Z,14.37
2022-10-19T08:19:49.091Z,14.38
2022-10-19T08:22:17.775Z,14.39
2022-10-19T08:24:46.441Z,14.43
2022-10-19T08:27:17.131Z,14.50
2022-10-19T08:29:45.825Z,14.57
2022-10-19T08:32:14.350Z,14.65
2022-10-19T08:34:42.731Z,14.75
2022-10-19T08:37:20.227Z,14.84
2022-10-19T08:39:54.722Z,14.91
2022-10-19T08:42:48.011Z,14.97
2022-10-19T08:48:28.572Z,14.99
2022-10-19T08:50:58.778Z,14.99
2022-10-19T08:53:45.846Z,15.02
2022-10-19T08:56:45.981Z,15.05
2022-10-19T08:59:21.067Z,15.02
2022-10-19T09:01:56.106Z,15.04
2022-10-19T09:04:31.556Z,15.08
2022-10-19T09:07:19.408Z,15.14
2022-10-19T09:09:58.931Z,15.22
2022-10-19T09:12:46.010Z,15.28
2022-10-19T09:15:33.288Z,15.32
2022-10-19T09:18:03.041Z,15.34
2022-10-19T09:20:39.358Z,15.37
2022-10-19T09:23:37.493Z,15.45
2022-10-19T09:26:19.102Z,15.53
2022-10-19T09:29:13.443Z,15.60
2022-10-19T09:31:45.790Z,15.66
2022-10-19T09:37:47.667Z,15.81
2022-10-19T09:40:31.037Z,15.88
2022-10-19T09:43:03.303Z,15.96
2022-10-19T09:46:00.515Z,16.02
2022-10-19T09:48:50.569Z,16.05
2022-10-19T09:51:20.111Z,16.08
2022-10-19T09:53:54.068Z,16.10
2022-10-19T09:56:27.795Z,16.08
2022-10-19T09:58:58.982Z,16.05
2022-10-19T10:01:43.022Z,16.04
2022-10-19T10:04:18.502Z,15.99
2022-10-19T10:06:48.825Z,15.91
2022-10-19T10:09:19.346Z,15.95
2022-10-19T10:11:50.815Z,15.95
2022-10-19T10:14:24.740Z,15.93
2022-10-19T10:17:22.091Z,15.91
2022-10-19T10:19:51.439Z,15.90
2022-10-19T10:22:29.888Z,15.83
2022-10-19T10:24:58.801Z,15.78
2022-10-19T10:27:37.371Z,15.71
2022-10-19T10:30:13.048Z,15.62
2022-10-19T10:32:49.523Z,15.51
2022-10-19T10:35:50.077Z,15.42
2022-10-19T10:38:22.571Z,15.32
2022-10-19T10:40:57.471Z,15.23
2022-10-19T10:43:34.085Z,15.15
2022-10-19T10:46:13.436Z,15.11
2022-10-19T10:48:45.430Z,15.08
2022-10-19T10:51:28.380Z,15.03
2022-10-19T10:54:17.597Z,14.97
2022-10-19T10:57:18.845Z,14.89
2022-10-19T11:00:11.329Z,14.81
2022-10-19T11:03:04.866Z,14.83
2022-10-19T11:05:41.541Z,14.83
2022-10-19T11:08:19.262Z,14.91
2022-10-19T11:11:26.251Z,15.01
2022-10-19T11:14:37.638Z,15.04
2022-10-19T11:17:15.206Z,15.01
2022-10-19T11:19:45.325Z,15.01
2022-10-19T11:26:39.881Z,15.10
2022-10-19T11:29:50.944Z,15.04
2022-10-19T11:32:47.327Z,14.85
2022-10-19T11:35:21.804Z,14.65
2022-10-19T11:38:17.458Z,14.46
2022-10-19T11:41:16.506Z,14.34
2022-10-19T11:44:04.840Z,14.20
2022-10-19T11:47:22.698Z,14.06
2022-10-19T11:50:32.013Z,13.92
2022-10-19T11:53:30.520Z,13.82
2022-10-19T11:56:34.807Z,13.84
2022-10-19T11:59:43.165Z,14.04
2022-10-19T12:02:35.498Z,14.24
2022-10-19T12:05:15.648Z,14.44
2022-10-19T12:08:20.711Z,14.54
2022-10-19T12:11:13.324Z,14.53
2022-10-19T12:13:52.824Z,14.58
2022-10-19T12:16:22.068Z,14.66
2022-10-19T12:19:00.933Z,14.72
2022-10-19T12:21:43.333Z,14.79
2022-10-19T12:24:22.848Z,14.81
2022-10-19T12:26:52.426Z,14.83
2022-10-19T12:29:34.713Z,14.82
2022-10-19T12:32:03.970Z,14.82
2022-10-19T12:34:45.288Z,14.80
2022-10-19T12:37:15.945Z,14.77
2022-10-19T12:40:38.010Z,14.75
2022-10-19T12:43:36.832Z,14.70
2022-10-19T12:46:41.862Z,14.67
2022-10-19T12:49:29.065Z,14.73
2022-10-19T12:52:01.694Z,14.74
2022-10-19T12:54:35.417Z,14.72
2022-10-19T12:57:24.353Z,14.72
2022-10-19T13:00:24.695Z,14.71
2022-10-19T13:03:25.083Z,14.69
2022-10-19T13:06:03.449Z,14.70
2022-10-19T13:08:54.845Z,14.70
2022-10-19T13:11:24.371Z,14.73
2022-10-19T13:14:20.429Z,14.77
2022-10-19T13:17:03.473Z,14.79
2022-10-19T13:19:32.240Z,14.75
2022-10-19T13:22:25.170Z,14.71
2022-10-19T13:25:24.056Z,14.67
2022-10-19T13:27:57.716Z,14.66
2022-10-19T13:30:38.477Z,14.70
2022-10-19T13:33:25.741Z,14.76
2022-10-19T13:36:00.423Z,14.79
2022-10-19T13:38:41.430Z,14.80
2022-10-19T13:41:27.662Z,14.83
2022-10-19T13:44:25.467Z,14.90
2022-10-19T13:47:28.581Z,14.95
2022-10-19T13:50:47.258Z,14.98
2022-10-19T13:53:28.908Z,15.01
2022-10-19T13:56:22.666Z,15.01
2022-10-19T13:59:13.094Z,14.98
2022-10-19T14:01:53.713Z,14.95
2022-10-19T14:04:51.899Z,14.90
2022-10-19T14:07:28.847Z,14.85
2022-10-19T14:10:17.333Z,14.78
2022-10-19T14:12:46.964Z,14.72
2022-10-19T14:15:18.582Z,14.68
2022-10-19T14:17:47.242Z,14.64
2022-10-19T14:20:36.743Z,14.61
2022-10-19T14:23:28.486Z,14.57
2022-10-19T14:26:19.793Z,14.52
2022-10-19T14:28:54.425Z,14.47
2022-10-19T14:31:26.463Z,14.43
2022-10-19T14:34:00.683Z,14.39
2022-10-19T14:36:36.722Z,14.36
2022-10-19T14:39:06.449Z,14.34
2022-10-19T14:41:37.621Z,14.32
2022-10-19T14:44:45.451Z,14.29
2022-10-19T14:47:27.392Z,14.25
2022-10-19T14:49:57.173Z,14.21
2022-10-19T14:52:33.258Z,14.20
2022-10-19T14:55:07.790Z,14.19
2022-10-19T14:57:39.467Z,14.19
2022-10-19T15:00:17.735Z,14.18
2022-10-19T15:02:54.544Z,14.13
2022-10-19T15:05:30.167Z,14.07
2022-10-19T15:11:40.315Z,14.08
2022-10-19T15:14:15.322Z,14.05
2022-10-19T15:16:57.595Z,14.04
2022-10-19T15:19:40.305Z,14.04
2022-10-19T15:22:14.749Z,14.01
2022-10-19T15:25:19.637Z,13.98
2022-10-19T15:27:50.917Z,13.97
2022-10-19T15:30:19.453Z,13.98
2022-10-19T15:33:08.710Z,13.98
2022-10-19T15:39:24.934Z,13.99
2022-10-19T15:41:54.111Z,13.95
2022-10-19T15:44:40.947Z,13.93
2022-10-19T15:47:15.597Z,13.88
2022-10-19T15:49:44.627Z,13.85
2022-10-19T15:52:21.678Z,13.85
2022-10-19T15:54:52.839Z,13.86
2022-10-19T15:57:31.062Z,13.86
2022-10-19T16:00:06.491Z,13.84
2022-10-19T16:02:35.467Z,13.82
2022-10-19T16:05:04.489Z,13.77
2022-10-19T16:07:36.514Z,13.73
2022-10-19T16:10:06.235Z,13.72
2022-10-19T16:12:35.037Z,13.71
2022-10-19T16:15:04.080Z,13.70
2022-10-19T16:17:33.511Z,13.68
2022-10-19T16:20:06.692Z,13.66
2022-10-19T16:22:35.197Z,13.69
2022-10-19T16:25:04.868Z,13.75
2022-10-19T16:27:33.851Z,13.82
2022-10-19T16:30:02.760Z,13.86
2022-10-19T16:32:31.253Z,13.91
2022-10-19T16:35:00.127Z,13.92
2022-10-19T16:37:28.797Z,13.93
2022-10-19T16:39:57.447Z,13.93
2022-10-19T16:42:29.731Z,13.91
2022-10-19T16:44:59.792Z,13.89
2022-10-19T16:47:29.141Z,13.85
2022-10-19T16:50:00.448Z,13.82
2022-10-19T16:52:33.194Z,13.79
2022-10-19T16:55:02.330Z,13.77
2022-10-19T16:57:30.929Z,13.77
2022-10-19T16:59:59.533Z,13.77
2022-10-19T17:02:28.091Z,13.76
2022-10-19T17:08:21.639Z,13.75
2022-10-19T17:10:52.484Z,13.71
2022-10-19T17:13:21.163Z,13.70
2022-10-19T17:15:49.687Z,13.68
2022-10-19T17:20:51.524Z,13.67
2022-10-19T17:23:20.000Z,13.67
2022-10-19T17:25:49.465Z,13.67
2022-10-19T17:28:17.880Z,13.66
2022-10-19T17:30:47.739Z,13.65
2022-10-19T17:33:16.171Z,13.63
2022-10-19T17:35:45.950Z,13.60
2022-10-19T17:38:14.589Z,13.57
2022-10-19T17:40:42.922Z,13.55
2022-10-19T17:43:11.460Z,13.52
2022-10-19T17:45:40.316Z,13.50
2022-10-19T17:48:08.885Z,13.48
2022-10-19T17:50:37.432Z,13.45
2022-10-19T17:53:05.905Z,13.45
2022-10-19T17:55:37.538Z,13.39
2022-10-19T17:58:06.093Z,13.33
2022-10-19T18:00:34.608Z,13.27
2022-10-19T18:03:03.472Z,13.23
2022-10-19T18:05:32.316Z,13.18
2022-10-19T18:08:01.028Z,13.13
2022-10-19T18:10:29.487Z,13.09
2022-10-19T18:12:58.450Z,13.06
2022-10-19T18:15:27.048Z,13.05
2022-10-19T18:17:55.830Z,13.04
2022-10-19T18:20:24.321Z,13.03
2022-10-19T18:22:52.966Z,13.05
2022-10-19T18:25:42.313Z,13.07
2022-10-19T18:28:11.321Z,13.07
2022-10-19T18:30:40.004Z,13.07
2022-10-19T18:33:09.157Z,13.06
2022-10-19T18:35:39.375Z,13.04
2022-10-19T18:38:08.005Z,12.99
2022-10-19T18:40:39.750Z,12.94
2022-10-19T18:43:08.371Z,12.87
2022-10-19T18:45:36.843Z,12.81
2022-10-19T18:48:06.376Z,12.75
2022-10-19T18:50:34.844Z,12.70
2022-10-19T18:53:03.644Z,12.64
2022-10-19T18:55:32.202Z,12.59
2022-10-19T18:58:00.716Z,12.56
2022-10-19T19:00:29.796Z,12.54
2022-10-19T19:02:58.746Z,12.51
2022-10-19T19:05:28.302Z,12.48
2022-10-19T19:07:57.289Z,12.46
2022-10-19T19:10:25.825Z,12.48
2022-10-19T19:12:54.280Z,12.49
2022-10-19T19:15:23.262Z,12.50
2022-10-19T19:17:55.178Z,12.49
2022-10-19T19:20:23.788Z,12.49
2022-10-19T19:22:53.143Z,12.48
2022-10-19T19:25:21.898Z,12.47
2022-10-19T19:27:50.637Z,12.47
2022-10-19T19:30:19.361Z,12.45
2022-10-19T19:32:48.000Z,12.44
2022-10-19T19:35:16.458Z,12.42
2022-10-19T19:37:44.863Z,12.39
2022-10-19T19:40:13.868Z,12.38
2022-10-19T19:42:43.400Z,12.37
2022-10-19T19:45:12.249Z,12.35
2022-10-19T19:47:40.881Z,12.34
2022-10-19T19:50:09.930Z,12.33
2022-10-19T19:55:57.850Z,12.34
2022-10-19T19:58:27.402Z,12.31
2022-10-19T20:00:56.629Z,12.30
2022-10-19T20:03:25.582Z,12.28
2022-10-19T20:05:53.997Z,12.26
2022-10-19T20:08:22.480Z,12.23
2022-10-19T20:10:51.260Z,12.20
2022-10-19T20:13:19.875Z,12.17
2022-10-19T20:15:48.452Z,12.14
2022-10-19T20:18:17.413Z,12.11
2022-10-19T20:20:46.132Z,12.08
2022-10-19T20:23:15.095Z,12.05
2022-10-19T20:25:44.120Z,12.01
2022-10-19T20:28:13.085Z,11.97
2022-10-19T20:30:44.679Z,11.93
2022-10-19T20:33:13.461Z,11.85
2022-10-19T20:35:42.281Z,11.81
2022-10-19T20:38:10.920Z,11.75
2022-10-19T20:40:41.048Z,11.69
2022-10-19T20:43:09.662Z,11.62
2022-10-19T20:45:38.140Z,11.56
2022-10-19T20:48:06.689Z,11.50
2022-10-19T20:50:35.292Z,11.43
2022-10-19T20:53:04.649Z,11.37
2022-10-19T20:55:33.893Z,11.31
2022-10-19T20:58:02.442Z,11.23
2022-10-19T21:00:31.168Z,11.15
2022-10-19T21:03:00.181Z,11.08
2022-10-19T21:05:30.033Z,11.01
2022-10-19T21:07:58.994Z,10.94
2022-10-19T21:10:29.205Z,10.87
2022-10-19T21:12:58.069Z,10.81
2022-10-19T21:15:26.726Z,10.74
2022-10-19T21:17:55.207Z,10.69
2022-10-19T21:20:23.966Z,10.64
2022-10-19T21:22:52.608Z,10.61
2022-10-19T21:25:21.320Z,10.58
2022-10-19T21:27:52.893Z,10.51
2022-10-19T21:30:22.527Z,10.46
2022-10-19T21:32:51.397Z,10.43
2022-10-19T21:35:20.033Z,10.37
2022-10-19T21:37:49.079Z,10.30
2022-10-19T21:40:17.501Z,10.25
2022-10-19T21:42:45.910Z,10.17
2022-10-19T21:45:29.844Z,10.08
2022-10-19T21:47:59.042Z,10.01
2022-10-19T21:50:27.405Z,9.97
2022-10-19T21:52:56.015Z,9.92
2022-10-19T21:55:25.213Z,9.87
2022-10-19T21:57:53.676Z,9.81
2022-10-19T22:00:22.270Z,9.76
2022-10-19T22:02:50.825Z,9.73
2022-10-19T22:05:20.051Z,9.69
2022-10-19T22:07:48.717Z,9.67
2022-10-19T22:10:17.340Z,9.70
2022-10-19T22:12:45.832Z,9.77
2022-10-19T22:15:15.000Z,9.87
2022-10-19T22:17:43.575Z,9.96
2022-10-19T22:20:12.294Z,10.02
2022-10-19T22:22:40.611Z,10.01
2022-10-19T22:25:09.253Z,9.96
2022-10-19T22:27:37.702Z,9.98
2022-10-19T22:30:07.504Z,10.06
2022-10-19T22:32:36.122Z,10.16
2022-10-19T22:35:06.265Z,10.24
2022-10-19T22:37:35.100Z,10.28
2022-10-19T22:40:04.157Z,10.29
2022-10-19T22:42:32.889Z,10.29
2022-10-19T22:45:01.689Z,10.30
2022-10-19T22:47:30.303Z,10.31
2022-10-19T22:49:58.683Z,10.31
2022-10-19T22:52:27.015Z,10.31
2022-10-19T22:54:55.944Z,10.32
2022-10-19T22:57:24.968Z,10.34
2022-10-19T22:59:53.782Z,10.36
2022-10-19T23:02:22.492Z,10.37
2022-10-19T23:04:50.879Z,10.38
2022-10-19T23:07:19.292Z,10.36
2022-10-19T23:09:47.639Z,10.36
2022-10-19T23:12:16.908Z,10.36
2022-10-19T23:14:45.201Z,10.35
2022-10-19T23:17:13.604Z,10.31
2022-10-19T23:19:41.998Z,10.27
2022-10-19T23:22:10.393Z,10.23
2022-10-19T23:24:38.768Z,10.20
2022-10-19T23:27:07.194Z,10.18
2022-10-19T23:29:35.586Z,10.15
2022-10-19T23:32:04.032Z,10.12
2022-10-19T23:34:32.436Z,10.08
2022-10-19T23:37:00.974Z,10.04
2022-10-19T23:39:29.280Z,10.01
2022-10-19T23:41:57.692Z,9.97
2022-10-19T23:44:26.094Z,9.93
2022-10-19T23:46:54.343Z,9.91
2022-10-19T23:49:22.813Z,9.87
2022-10-19T23:51:51.180Z,9.83
2022-10-19T23:54:19.470Z,9.80
2022-10-19T23:56:47.877Z,9.76
2022-10-19T23:59:16.178Z,9.72
